createdAt,value
2019-02-14T00:00:43.825Z,3.70
2019-02-14T00:03:12.669Z,3.70
2019-02-14T00:05:41.479Z,3.70
2019-02-14T00:08:10.402Z,3.70
2019-02-14T00:10:39.509Z,3.70
2019-02-14T00:13:08.325Z,3.80
2019-02-14T00:15:37.317Z,3.80
2019-02-14T00:18:06.224Z,3.70
2019-02-14T00:20:35.422Z,3.70
2019-02-14T00:23:04.556Z,3.70
2019-02-14T00:25:33.422Z,3.60
2019-02-14T00:28:02.363Z,3.60
2019-02-14T00:30:31.514Z,3.70
2019-02-14T00:33:00.362Z,3.70
2019-02-14T00:35:29.229Z,3.70
2019-02-14T00:37:58.633Z,3.60
2019-02-14T00:40:27.664Z,3.70
2019-02-14T00:42:56.508Z,3.70
2019-02-14T00:45:25.676Z,3.60
2019-02-14T00:47:54.505Z,3.60
2019-02-14T00:50:23.316Z,3.70
2019-02-14T00:52:52.481Z,3.70
2019-02-14T00:55:21.689Z,3.70
2019-02-14T00:57:50.516Z,3.70
2019-02-14T01:00:19.622Z,3.70
2019-02-14T01:02:48.409Z,3.70
2019-02-14T01:05:17.226Z,3.70
2019-02-14T01:07:46.569Z,3.70
2019-02-14T01:10:15.544Z,3.70
2019-02-14T01:12:44.744Z,3.70
2019-02-14T01:15:15.069Z,3.70
2019-02-14T01:17:43.888Z,3.60
2019-02-14T01:20:12.697Z,3.60
2019-02-14T01:22:41.668Z,3.60
2019-02-14T01:25:10.577Z,3.60
2019-02-14T01:27:39.388Z,3.60
2019-02-14T01:30:09.344Z,3.60
2019-02-14T01:32:38.232Z,3.50
2019-02-14T01:35:07.445Z,3.50
2019-02-14T01:37:36.467Z,3.50
2019-02-14T01:40:05.836Z,3.50
2019-02-14T01:42:34.732Z,3.40
2019-02-14T01:45:04.873Z,3.40
2019-02-14T01:47:33.693Z,3.50
2019-02-14T01:50:02.566Z,3.50
2019-02-14T01:52:31.606Z,3.40
2019-02-14T01:55:00.426Z,3.40
2019-02-14T01:57:29.315Z,3.40
2019-02-14T01:59:58.418Z,3.40
2019-02-14T02:02:27.377Z,3.40
2019-02-14T02:04:56.257Z,3.40
2019-02-14T02:07:25.196Z,3.40
2019-02-14T02:09:54.085Z,3.40
2019-02-14T02:12:22.957Z,3.40
2019-02-14T02:14:52.629Z,3.30
2019-02-14T02:17:21.463Z,3.30
2019-02-14T02:19:50.281Z,3.30
2019-02-14T02:22:19.346Z,3.30
2019-02-14T02:24:48.184Z,3.30
2019-02-14T02:27:17.005Z,3.20
2019-02-14T02:29:45.993Z,3.20
2019-02-14T02:32:15.163Z,3.30
2019-02-14T02:34:44.036Z,3.30
2019-02-14T02:37:32.205Z,3.20
2019-02-14T02:40:01.070Z,3.20
2019-02-14T02:42:49.361Z,3.30
2019-02-14T02:45:18.184Z,3.20
2019-02-14T02:47:47.375Z,3.20
2019-02-14T02:50:16.464Z,3.20
2019-02-14T02:52:45.334Z,3.20
2019-02-14T02:55:14.194Z,3.20
2019-02-14T02:57:43.178Z,3.20
2019-02-14T03:00:14.453Z,3.30
2019-02-14T03:02:43.292Z,3.30
2019-02-14T03:05:13.309Z,3.30
2019-02-14T03:07:42.281Z,3.30
2019-02-14T03:10:11.760Z,3.30
2019-02-14T03:12:41.060Z,3.30
2019-02-14T03:15:11.266Z,3.30
2019-02-14T03:17:40.222Z,3.30
2019-02-14T03:20:10.688Z,3.20
2019-02-14T03:22:39.553Z,3.20
2019-02-14T03:25:11.649Z,3.10
2019-02-14T03:27:40.492Z,3.10
2019-02-14T03:30:09.977Z,3.10
2019-02-14T03:32:39.034Z,3.10
2019-02-14T03:35:08.203Z,3.10
2019-02-14T03:37:37.737Z,3.10
2019-02-14T03:40:08.104Z,3.10
2019-02-14T03:42:36.925Z,3.00
2019-02-14T03:45:07.476Z,3.00
2019-02-14T03:47:36.562Z,2.90
2019-02-14T03:50:05.788Z,3.00
2019-02-14T03:52:34.624Z,3.00
2019-02-14T03:55:03.857Z,3.00
2019-02-14T03:57:32.797Z,3.00
2019-02-14T04:00:01.674Z,3.00
2019-02-14T04:02:30.682Z,3.00
2019-02-14T04:04:59.528Z,3.00
2019-02-14T04:07:28.531Z,2.90
2019-02-14T04:09:57.510Z,2.90
2019-02-14T04:12:26.335Z,2.90
2019-02-14T04:14:55.206Z,2.90
2019-02-14T04:17:24.945Z,2.90
2019-02-14T04:19:53.800Z,2.90
2019-02-14T04:22:22.644Z,2.90
2019-02-14T04:24:51.729Z,2.80
2019-02-14T04:27:20.532Z,2.80
2019-02-14T04:29:49.325Z,2.80
2019-02-14T04:32:18.372Z,2.80
2019-02-14T04:34:47.177Z,2.70
2019-02-14T04:37:16.160Z,2.70
2019-02-14T04:39:45.088Z,2.70
2019-02-14T04:42:15.099Z,2.70
2019-02-14T04:44:43.993Z,2.70
2019-02-14T04:47:13.112Z,2.70
2019-02-14T04:49:42.068Z,2.70
2019-02-14T04:52:10.885Z,2.70
2019-02-14T04:54:40.125Z,2.70
2019-02-14T04:57:09.016Z,2.70
2019-02-14T04:59:37.915Z,2.70
2019-02-14T05:02:06.859Z,2.70
2019-02-14T05:04:35.660Z,2.70
2019-02-14T05:07:04.620Z,2.70
2019-02-14T05:09:33.683Z,2.70
2019-02-14T05:12:02.845Z,2.70
2019-02-14T05:14:31.659Z,2.70
2019-02-14T05:17:00.646Z,2.70
2019-02-14T05:19:29.453Z,2.80
2019-02-14T05:21:58.277Z,2.80
2019-02-14T05:24:27.332Z,2.80
2019-02-14T05:26:56.207Z,2.80
2019-02-14T05:29:25.107Z,2.80
2019-02-14T05:31:54.068Z,2.80
2019-02-14T05:34:22.957Z,2.80
2019-02-14T05:36:53.809Z,2.80
2019-02-14T05:39:22.532Z,2.80
2019-02-14T05:41:51.381Z,2.80
2019-02-14T05:44:20.367Z,2.80
2019-02-14T05:46:49.405Z,2.80
2019-02-14T05:49:18.283Z,2.80
2019-02-14T05:51:47.104Z,2.60
2019-02-14T05:54:16.238Z,2.70
2019-02-14T05:56:45.066Z,2.60
2019-02-14T05:59:14.072Z,2.60
2019-02-14T06:01:43.138Z,2.60
2019-02-14T06:04:11.976Z,2.70
2019-02-14T06:06:41.695Z,2.70
2019-02-14T06:09:11.057Z,2.60
2019-02-14T06:11:39.959Z,2.70
2019-02-14T06:14:28.356Z,2.70
2019-02-14T06:16:57.182Z,2.60
2019-02-14T06:19:25.980Z,2.70
2019-02-14T06:21:54.968Z,2.60
2019-02-14T06:24:23.934Z,2.50
2019-02-14T06:26:52.837Z,2.50
2019-02-14T06:29:22.015Z,2.40
2019-02-14T06:31:51.248Z,2.40
2019-02-14T06:34:20.164Z,2.30
2019-02-14T06:36:50.736Z,2.40
2019-02-14T06:39:19.576Z,2.40
2019-02-14T06:41:48.562Z,2.40
2019-02-14T06:44:17.541Z,2.40
2019-02-14T06:46:49.530Z,2.30
2019-02-14T06:49:18.585Z,2.30
2019-02-14T06:51:47.500Z,2.30
2019-02-14T06:54:16.373Z,2.30
2019-02-14T06:56:45.748Z,2.40
2019-02-14T06:59:14.882Z,2.40
2019-02-14T07:01:43.697Z,2.30
2019-02-14T07:04:12.537Z,2.20
2019-02-14T07:06:42.198Z,2.20
2019-02-14T07:09:11.007Z,2.30
2019-02-14T07:11:39.828Z,2.30
2019-02-14T07:14:08.909Z,2.30
2019-02-14T07:16:38.025Z,2.30
2019-02-14T07:19:06.844Z,2.30
2019-02-14T07:21:35.760Z,2.30
2019-02-14T07:24:04.709Z,2.30
2019-02-14T07:26:33.580Z,2.30
2019-02-14T07:29:02.772Z,2.30
2019-02-14T07:31:31.659Z,2.30
2019-02-14T07:34:00.523Z,2.40
2019-02-14T07:36:29.502Z,2.40
2019-02-14T07:38:58.344Z,2.40
2019-02-14T07:41:27.276Z,2.40
2019-02-14T07:43:56.278Z,2.50
2019-02-14T07:46:25.186Z,2.50
2019-02-14T07:48:54.017Z,2.50
2019-02-14T07:51:22.908Z,2.60
2019-02-14T07:53:51.893Z,2.60
2019-02-14T07:56:20.728Z,2.60
2019-02-14T07:58:49.532Z,2.70
2019-02-14T08:01:18.565Z,2.70
2019-02-14T08:03:47.804Z,2.80
2019-02-14T08:06:16.612Z,2.90
2019-02-14T08:08:45.484Z,2.90
2019-02-14T08:11:14.634Z,3.00
2019-02-14T08:13:43.458Z,3.10
2019-02-14T08:16:12.344Z,3.20
2019-02-14T08:18:41.326Z,3.30
2019-02-14T08:21:10.457Z,3.30
2019-02-14T08:23:39.249Z,3.40
2019-02-14T08:26:10.760Z,3.50
2019-02-14T08:28:38.991Z,3.60
2019-02-14T08:31:07.792Z,3.70
2019-02-14T08:33:36.730Z,3.90
2019-02-14T08:36:05.605Z,3.90
2019-02-14T08:38:34.436Z,3.90
2019-02-14T08:41:03.483Z,4.00
2019-02-14T08:43:32.322Z,4.10
2019-02-14T08:46:01.229Z,4.20
2019-02-14T08:48:30.398Z,4.30
2019-02-14T08:50:59.327Z,4.40
2019-02-14T08:53:28.469Z,4.50
2019-02-14T08:55:57.387Z,4.70
2019-02-14T08:58:26.397Z,4.80
2019-02-14T09:00:55.228Z,5.00
2019-02-14T09:03:24.250Z,5.10
2019-02-14T09:05:53.048Z,5.30
2019-02-14T09:08:21.864Z,5.40
2019-02-14T09:10:50.809Z,5.40
2019-02-14T09:13:19.639Z,5.60
2019-02-14T09:15:48.486Z,5.60
2019-02-14T09:18:17.503Z,5.60
2019-02-14T09:20:46.416Z,5.80
2019-02-14T09:23:15.249Z,5.90
2019-02-14T09:25:44.140Z,6.00
2019-02-14T09:28:12.961Z,6.00
2019-02-14T09:30:41.754Z,6.20
2019-02-14T09:33:10.830Z,6.30
2019-02-14T09:35:39.708Z,6.40
2019-02-14T09:38:08.600Z,6.60
2019-02-14T09:40:37.842Z,6.60
2019-02-14T09:43:06.736Z,6.70
2019-02-14T09:45:35.688Z,7.10
2019-02-14T09:48:04.946Z,7.40
2019-02-14T09:50:33.889Z,7.40
2019-02-14T09:53:02.698Z,7.30
2019-02-14T09:55:31.593Z,7.40
2019-02-14T09:58:00.389Z,7.30
2019-02-14T10:00:29.201Z,7.30
2019-02-14T10:02:58.201Z,7.30
2019-02-14T10:05:28.917Z,7.40
2019-02-14T10:07:57.841Z,7.60
2019-02-14T10:10:26.807Z,7.60
2019-02-14T10:12:55.948Z,7.70
2019-02-14T10:15:24.757Z,7.90
2019-02-14T10:17:53.742Z,8.10
2019-02-14T10:20:22.676Z,8.10
2019-02-14T10:22:51.529Z,8.20
2019-02-14T10:25:20.485Z,8.20
2019-02-14T10:27:49.364Z,8.50
2019-02-14T10:30:18.617Z,8.60
2019-02-14T10:32:47.902Z,8.70
2019-02-14T10:35:16.705Z,8.80
2019-02-14T10:37:46.130Z,8.80
2019-02-14T10:40:15.297Z,8.90
2019-02-14T10:42:44.398Z,9.10
2019-02-14T10:45:14.992Z,9.20
2019-02-14T10:47:44.123Z,9.30
2019-02-14T10:50:13.073Z,9.30
2019-02-14T10:52:41.915Z,9.50
2019-02-14T10:55:11.713Z,9.60
2019-02-14T10:57:40.657Z,9.60
2019-02-14T11:00:16.561Z,9.70
2019-02-14T11:02:45.819Z,9.80
2019-02-14T11:05:15.648Z,10.10
2019-02-14T11:07:44.724Z,10.10
2019-02-14T11:10:13.982Z,10.10
2019-02-14T11:12:42.996Z,10.10
2019-02-14T11:15:12.922Z,10.00
2019-02-14T11:17:41.955Z,10.10
2019-02-14T11:20:12.433Z,10.20
2019-02-14T11:22:41.324Z,10.30
2019-02-14T11:25:13.355Z,10.50
2019-02-14T11:27:42.196Z,10.60
2019-02-14T11:30:12.213Z,10.60
2019-02-14T11:32:41.197Z,10.60
2019-02-14T11:35:10.301Z,10.20
2019-02-14T11:37:39.169Z,10.30
2019-02-14T11:40:09.519Z,10.60
2019-02-14T11:42:38.410Z,10.70
2019-02-14T11:45:09.698Z,10.80
2019-02-14T11:47:38.918Z,10.80
2019-02-14T11:50:09.086Z,10.70
2019-02-14T11:52:37.890Z,10.50
2019-02-14T11:55:07.168Z,10.70
2019-02-14T11:57:36.240Z,11.00
2019-02-14T12:00:08.062Z,11.10
2019-02-14T12:02:37.937Z,11.10
2019-02-14T12:05:07.409Z,11.30
2019-02-14T12:07:36.410Z,11.50
2019-02-14T12:10:13.217Z,11.40
2019-02-14T12:12:37.365Z,11.50
2019-02-14T12:15:06.413Z,11.40
2019-02-14T12:17:35.215Z,11.70
2019-02-14T12:20:04.391Z,11.50
2019-02-14T12:22:33.261Z,11.50
2019-02-14T12:25:02.142Z,11.60
2019-02-14T12:27:31.228Z,11.20
2019-02-14T12:30:00.046Z,11.10
2019-02-14T12:32:29.136Z,11.20
2019-02-14T12:34:58.136Z,11.40
2019-02-14T12:37:26.981Z,11.60
2019-02-14T12:39:55.793Z,11.80
2019-02-14T12:42:24.802Z,11.80
2019-02-14T12:44:53.641Z,11.90
2019-02-14T12:47:22.468Z,11.90
2019-02-14T12:49:51.511Z,12.00
2019-02-14T12:52:20.358Z,12.10
2019-02-14T12:54:49.161Z,12.30
2019-02-14T12:57:18.204Z,12.40
2019-02-14T12:59:47.009Z,12.30
2019-02-14T13:02:15.806Z,12.30
2019-02-14T13:04:46.026Z,12.30
2019-02-14T13:07:15.121Z,12.40
2019-02-14T13:09:43.982Z,12.50
2019-02-14T13:12:13.040Z,12.40
2019-02-14T13:14:41.896Z,12.20
2019-02-14T13:17:10.743Z,12.30
2019-02-14T13:19:39.802Z,12.60
2019-02-14T13:22:08.697Z,12.60
2019-02-14T13:24:37.846Z,12.70
2019-02-14T13:27:06.908Z,12.70
2019-02-14T13:29:35.784Z,12.50
2019-02-14T13:32:04.676Z,12.50
2019-02-14T13:34:33.646Z,12.80
2019-02-14T13:37:02.456Z,13.00
2019-02-14T13:39:32.702Z,12.90
2019-02-14T13:42:01.747Z,13.00
2019-02-14T13:44:30.740Z,13.00
2019-02-14T13:46:59.542Z,12.90
2019-02-14T13:49:28.509Z,13.00
2019-02-14T13:51:57.306Z,13.10
2019-02-14T13:54:26.093Z,13.10
2019-02-14T13:56:55.060Z,12.90
2019-02-14T13:59:23.918Z,12.70
2019-02-14T14:01:52.826Z,12.70
2019-02-14T14:04:21.842Z,12.60
2019-02-14T14:06:50.665Z,12.70
2019-02-14T14:09:19.480Z,12.60
2019-02-14T14:11:48.454Z,12.60
2019-02-14T14:14:17.250Z,12.50
2019-02-14T14:16:46.066Z,12.40
2019-02-14T14:19:15.029Z,12.40
2019-02-14T14:21:43.965Z,12.30
2019-02-14T14:24:12.749Z,12.20
2019-02-14T14:26:42.001Z,12.10
2019-02-14T14:29:10.882Z,12.10
2019-02-14T14:31:39.689Z,12.10
2019-02-14T14:34:08.596Z,11.90
2019-02-14T14:36:37.444Z,12.00
2019-02-14T14:39:07.096Z,12.00
2019-02-14T14:41:36.177Z,12.00
2019-02-14T14:44:14.842Z,11.90
2019-02-14T14:46:57.186Z,11.90
2019-02-14T14:49:26.102Z,11.90
2019-02-14T14:51:54.928Z,11.90
2019-02-14T14:54:23.962Z,11.90
2019-02-14T14:56:52.817Z,11.80
2019-02-14T14:59:21.649Z,11.90
2019-02-14T15:01:50.696Z,11.90
2019-02-14T15:04:19.528Z,11.90
2019-02-14T15:06:48.446Z,11.80
2019-02-14T15:09:17.460Z,11.80
2019-02-14T15:11:46.297Z,11.80
2019-02-14T15:14:15.436Z,11.70
2019-02-14T15:16:44.448Z,11.80
2019-02-14T15:19:13.302Z,11.80
2019-02-14T15:21:42.172Z,11.80
2019-02-14T15:24:11.710Z,11.60
2019-02-14T15:26:40.640Z,11.60
2019-02-14T15:29:09.489Z,11.50
2019-02-14T15:31:44.525Z,11.50
2019-02-14T15:34:16.516Z,11.50
2019-02-14T15:36:49.411Z,11.50
2019-02-14T15:39:18.584Z,11.50
2019-02-14T15:41:48.858Z,11.50
2019-02-14T15:44:17.711Z,11.50
2019-02-14T15:46:46.556Z,11.40
2019-02-14T15:49:16.769Z,11.30
2019-02-14T15:51:48.661Z,11.30
2019-02-14T15:54:17.530Z,11.40
2019-02-14T15:56:51.341Z,11.30
2019-02-14T15:59:22.817Z,11.40
2019-02-14T16:01:51.645Z,11.40
2019-02-14T16:04:20.557Z,11.30
2019-02-14T16:06:51.947Z,11.30
2019-02-14T16:09:26.667Z,11.20
2019-02-14T16:11:57.744Z,11.20
2019-02-14T16:14:26.824Z,11.10
2019-02-14T16:16:55.724Z,11.20
2019-02-14T16:19:24.625Z,11.10
2019-02-14T16:21:56.126Z,11.00
2019-02-14T16:24:25.098Z,11.00
2019-02-14T16:26:54.013Z,10.90
2019-02-14T16:29:24.963Z,10.80
2019-02-14T16:32:03.149Z,10.80
2019-02-14T16:34:34.317Z,10.70
2019-02-14T16:37:11.957Z,10.70
2019-02-14T16:39:40.874Z,10.60
2019-02-14T16:42:09.694Z,10.60
2019-02-14T16:44:39.953Z,10.50
2019-02-14T16:47:08.928Z,10.40
2019-02-14T16:49:37.745Z,10.30
2019-02-14T16:52:08.350Z,10.30
2019-02-14T16:54:37.170Z,10.20
2019-02-14T16:57:05.980Z,10.10
2019-02-14T16:59:35.093Z,10.10
2019-02-14T17:02:04.071Z,9.90
2019-02-14T17:04:32.937Z,9.80
2019-02-14T17:07:01.977Z,9.50
2019-02-14T17:09:30.816Z,9.40
2019-02-14T17:11:59.773Z,9.20
2019-02-14T17:14:28.780Z,9.20
2019-02-14T17:16:57.868Z,9.10
2019-02-14T17:19:26.777Z,9.00
2019-02-14T17:21:55.789Z,8.90
2019-02-14T17:24:25.642Z,8.90
2019-02-14T17:26:54.568Z,8.80
2019-02-14T17:29:23.572Z,8.70
2019-02-14T17:31:52.449Z,8.60
2019-02-14T17:34:21.469Z,8.50
2019-02-14T17:36:50.690Z,8.50
2019-02-14T17:39:19.501Z,8.50
2019-02-14T17:41:48.320Z,8.50
2019-02-14T17:44:17.344Z,8.40
2019-02-14T17:46:46.156Z,8.50
2019-02-14T17:49:15.069Z,8.40
2019-02-14T17:51:43.892Z,8.30
2019-02-14T17:54:12.765Z,8.20
2019-02-14T17:56:41.596Z,8.00
2019-02-14T17:59:10.566Z,7.70
2019-02-14T18:01:39.464Z,7.60
2019-02-14T18:04:08.361Z,7.40
2019-02-14T18:06:37.711Z,7.30
2019-02-14T18:09:07.567Z,7.20
2019-02-14T18:11:36.459Z,7.30
2019-02-14T18:14:05.324Z,7.50
2019-02-14T18:16:34.225Z,7.50
2019-02-14T18:19:05.277Z,7.50
2019-02-14T18:21:34.274Z,7.20
2019-02-14T18:24:03.405Z,7.10
2019-02-14T18:26:32.270Z,7.10
2019-02-14T18:29:01.366Z,7.00
2019-02-14T18:31:30.216Z,6.90
2019-02-14T18:33:59.142Z,6.70
2019-02-14T18:36:28.226Z,6.70
2019-02-14T18:38:57.749Z,6.80
2019-02-14T18:41:26.677Z,6.80
2019-02-14T18:43:55.955Z,6.70
2019-02-14T18:46:24.853Z,6.80
2019-02-14T18:48:53.681Z,6.70
2019-02-14T18:51:22.663Z,6.50
2019-02-14T18:53:51.562Z,6.40
2019-02-14T18:56:20.398Z,6.60
2019-02-14T18:58:49.395Z,6.60
2019-02-14T19:01:18.262Z,6.50
2019-02-14T19:03:47.165Z,6.30
2019-02-14T19:06:16.199Z,6.10
2019-02-14T19:08:45.135Z,6.10
2019-02-14T19:11:15.439Z,6.20
2019-02-14T19:13:44.913Z,6.10
2019-02-14T19:16:13.796Z,5.90
2019-02-14T19:18:42.688Z,5.90
2019-02-14T19:21:11.685Z,5.90
2019-02-14T19:23:40.519Z,6.00
2019-02-14T19:26:09.336Z,5.90
2019-02-14T19:28:38.341Z,5.80
2019-02-14T19:31:07.176Z,6.00
2019-02-14T19:33:36.015Z,6.00
2019-02-14T19:36:05.272Z,6.00
2019-02-14T19:38:34.061Z,6.00
2019-02-14T19:41:02.934Z,6.00
2019-02-14T19:43:32.042Z,6.10
2019-02-14T19:46:00.846Z,6.20
2019-02-14T19:48:29.653Z,6.20
2019-02-14T19:50:58.934Z,6.30
2019-02-14T19:53:27.733Z,6.20
2019-02-14T19:56:00.100Z,6.30
2019-02-14T19:58:30.156Z,6.50
2019-02-14T20:00:58.969Z,6.50
2019-02-14T20:03:27.963Z,6.60
2019-02-14T20:05:56.870Z,6.60
2019-02-14T20:08:25.766Z,6.60
2019-02-14T20:10:54.818Z,6.50
2019-02-14T20:13:23.632Z,6.30
2019-02-14T20:15:52.464Z,6.10
2019-02-14T20:18:21.682Z,5.90
2019-02-14T20:20:50.550Z,5.80
2019-02-14T20:23:19.379Z,5.60
2019-02-14T20:25:49.926Z,5.60
2019-02-14T20:28:18.972Z,5.90
2019-02-14T20:30:47.763Z,6.00
2019-02-14T20:33:18.512Z,6.10
2019-02-14T20:35:47.375Z,6.20
2019-02-14T20:38:16.277Z,6.20
2019-02-14T20:40:48.435Z,6.20
2019-02-14T20:43:17.456Z,6.20
2019-02-14T20:45:46.326Z,6.30
2019-02-14T20:48:15.173Z,6.30
2019-02-14T20:50:44.413Z,6.10
2019-02-14T20:53:13.336Z,5.90
2019-02-14T20:55:42.167Z,5.80
2019-02-14T20:58:11.383Z,5.60
2019-02-14T21:00:40.309Z,5.40
2019-02-14T21:03:09.397Z,5.40
2019-02-14T21:05:38.706Z,5.30
2019-02-14T21:08:07.680Z,5.20
2019-02-14T21:10:36.700Z,5.30
2019-02-14T21:13:05.908Z,5.50
2019-02-14T21:15:34.790Z,5.70
2019-02-14T21:18:03.789Z,5.80
2019-02-14T21:20:33.030Z,5.90
2019-02-14T21:23:02.126Z,6.00
2019-02-14T21:25:31.175Z,5.90
2019-02-14T21:28:00.300Z,6.00
2019-02-14T21:30:29.261Z,5.90
2019-02-14T21:32:58.836Z,6.00
2019-02-14T21:35:28.023Z,6.00
2019-02-14T21:37:56.997Z,6.00
2019-02-14T21:40:25.940Z,6.10
2019-02-14T21:42:55.053Z,6.00
2019-02-14T21:45:24.122Z,5.80
2019-02-14T21:47:53.152Z,5.70
2019-02-14T21:50:22.300Z,5.70
2019-02-14T21:52:51.218Z,5.80
2019-02-14T21:55:20.154Z,5.70
2019-02-14T21:57:49.280Z,5.90
2019-02-14T22:00:19.208Z,5.90
2019-02-14T22:02:48.806Z,5.90
2019-02-14T22:05:23.943Z,5.90
2019-02-14T22:07:49.227Z,5.90
2019-02-14T22:10:18.235Z,5.90
2019-02-14T22:12:47.244Z,5.90
2019-02-14T22:15:16.463Z,5.80
2019-02-14T22:17:45.417Z,5.80
2019-02-14T22:20:17.438Z,5.70
2019-02-14T22:22:46.327Z,5.60
2019-02-14T22:25:15.187Z,5.50
2019-02-14T22:27:44.221Z,5.40
2019-02-14T22:30:15.325Z,5.50
2019-02-14T22:32:44.498Z,5.50
2019-02-14T22:35:13.477Z,5.60
2019-02-14T22:37:42.530Z,5.50
2019-02-14T22:40:11.444Z,5.60
2019-02-14T22:42:46.656Z,5.50
2019-02-14T22:45:13.371Z,5.50
2019-02-14T22:47:42.265Z,5.40
2019-02-14T22:50:11.649Z,5.30
2019-02-14T22:52:40.712Z,5.30
2019-02-14T22:55:09.729Z,5.20
2019-02-14T22:57:38.902Z,5.30
2019-02-14T23:00:16.688Z,5.50
2019-02-14T23:02:45.789Z,5.60
2019-02-14T23:05:14.600Z,5.70
2019-02-14T23:07:43.559Z,5.70
2019-02-14T23:10:12.390Z,5.70
2019-02-14T23:12:41.297Z,5.70
2019-02-14T23:15:10.424Z,5.70
2019-02-14T23:17:39.237Z,5.60
2019-02-14T23:20:08.412Z,5.60
2019-02-14T23:22:37.493Z,5.40
2019-02-14T23:25:06.520Z,5.50
2019-02-14T23:27:35.352Z,5.50
2019-02-14T23:30:05.117Z,5.70
2019-02-14T23:32:34.096Z,5.70
2019-02-14T23:35:02.902Z,5.70
2019-02-14T23:37:32.203Z,5.50
2019-02-14T23:40:01.166Z,5.50
2019-02-14T23:42:30.012Z,5.50
2019-02-14T23:44:58.971Z,5.40
2019-02-14T23:47:27.797Z,5.50
2019-02-14T23:49:56.865Z,5.40
2019-02-14T23:52:26.040Z,5.40
2019-02-14T23:54:55.237Z,5.50
2019-02-14T23:57:24.128Z,5.50
2019-02-14T23:59:53.105Z,5.40
